sensor_id;sensor_type;location;lat;lon;timestamp;temperature;humidity
12436;DHT22;6282;51.440;6.938;2023-04-15T00:00:37;7.00;99.90
12436;DHT22;6282;51.440;6.938;2023-04-15T00:03:03;7.10;99.90
12436;DHT22;6282;51.440;6.938;2023-04-15T00:05:32;7.00;99.90
12436;DHT22;6282;51.440;6.938;2023-04-15T00:07:59;6.90;99.90
12436;DHT22;6282;51.440;6.938;2023-04-15T00:10:26;7.00;99.90
12436;DHT22;6282;51.440;6.938;2023-04-15T00:12:54;7.00;99.90
12436;DHT22;6282;51.440;6.938;2023-04-15T00:15:20;7.10;99.90
12436;DHT22;6282;51.440;6.938;2023-04-15T00:17:49;7.10;99.90
12436;DHT22;6282;51.440;6.938;2023-04-15T00:20:16;7.00;99.90
12436;DHT22;6282;51.440;6.938;2023-04-15T00:22:45;6.90;99.90
12436;DHT22;6282;51.440;6.938;2023-04-15T00:25:11;6.90;99.90
12436;DHT22;6282;51.440;6.938;2023-04-15T00:27:39;6.80;99.90
12436;DHT22;6282;51.440;6.938;2023-04-15T00:30:07;6.90;99.90
12436;DHT22;6282;51.440;6.938;2023-04-15T00:32:34;6.90;99.90
12436;DHT22;6282;51.440;6.938;2023-04-15T00:35:01;6.80;99.90
12436;DHT22;6282;51.440;6.938;2023-04-15T00:37:28;6.70;99.90
12436;DHT22;6282;51.440;6.938;2023-04-15T00:39:56;6.90;99.90
12436;DHT22;6282;51.440;6.938;2023-04-15T00:42:24;6.90;99.90
12436;DHT22;6282;51.440;6.938;2023-04-15T00:44:51;6.80;99.90
12436;DHT22;6282;51.440;6.938;2023-04-15T00:47:18;6.80;99.90
12436;DHT22;6282;51.440;6.938;2023-04-15T00:49:46;6.80;99.90
12436;DHT22;6282;51.440;6.938;2023-04-15T00:52:12;6.70;99.90
12436;DHT22;6282;51.440;6.938;2023-04-15T00:54:39;6.70;99.90
12436;DHT22;6282;51.440;6.938;2023-04-15T00:57:07;6.80;99.90
12436;DHT22;6282;51.440;6.938;2023-04-15T00:59:34;6.90;99.90
12436;DHT22;6282;51.440;6.938;2023-04-15T01:02:01;7.20;99.90
12436;DHT22;6282;51.440;6.938;2023-04-15T01:04:29;6.80;99.90
12436;DHT22;6282;51.440;6.938;2023-04-15T01:06:56;6.80;99.90
12436;DHT22;6282;51.440;6.938;2023-04-15T01:09:23;6.90;99.90
12436;DHT22;6282;51.440;6.938;2023-04-15T01:11:50;7.00;99.90
12436;DHT22;6282;51.440;6.938;2023-04-15T01:14:18;7.00;99.90
12436;DHT22;6282;51.440;6.938;2023-04-15T01:16:45;6.80;99.90
12436;DHT22;6282;51.440;6.938;2023-04-15T01:19:13;6.90;99.90
12436;DHT22;6282;51.440;6.938;2023-04-15T01:21:42;7.00;99.90
12436;DHT22;6282;51.440;6.938;2023-04-15T01:24:10;7.00;99.90
12436;DHT22;6282;51.440;6.938;2023-04-15T01:26:40;7.00;99.90
12436;DHT22;6282;51.440;6.938;2023-04-15T01:29:07;6.80;99.90
12436;DHT22;6282;51.440;6.938;2023-04-15T01:31:34;6.70;99.90
12436;DHT22;6282;51.440;6.938;2023-04-15T01:34:02;6.60;99.90
12436;DHT22;6282;51.440;6.938;2023-04-15T01:36:29;6.60;99.90
12436;DHT22;6282;51.440;6.938;2023-04-15T01:38:56;6.70;99.90
12436;DHT22;6282;51.440;6.938;2023-04-15T01:41:24;6.60;99.90
12436;DHT22;6282;51.440;6.938;2023-04-15T01:43:54;6.50;99.90
12436;DHT22;6282;51.440;6.938;2023-04-15T01:46:21;6.70;99.90
12436;DHT22;6282;51.440;6.938;2023-04-15T01:48:48;6.40;99.90
12436;DHT22;6282;51.440;6.938;2023-04-15T01:51:15;6.50;99.90
12436;DHT22;6282;51.440;6.938;2023-04-15T01:53:42;6.50;99.90
12436;DHT22;6282;51.440;6.938;2023-04-15T01:56:09;6.40;99.90
12436;DHT22;6282;51.440;6.938;2023-04-15T01:58:36;6.60;99.90
12436;DHT22;6282;51.440;6.938;2023-04-15T02:01:04;6.40;99.90
12436;DHT22;6282;51.440;6.938;2023-04-15T02:03:31;6.40;99.90
12436;DHT22;6282;51.440;6.938;2023-04-15T02:05:58;6.60;99.90
12436;DHT22;6282;51.440;6.938;2023-04-15T02:08:25;6.40;99.90
12436;DHT22;6282;51.440;6.938;2023-04-15T02:10:52;6.30;99.90
12436;DHT22;6282;51.440;6.938;2023-04-15T02:13:18;6.20;99.90
12436;DHT22;6282;51.440;6.938;2023-04-15T02:15:48;6.20;99.90
12436;DHT22;6282;51.440;6.938;2023-04-15T02:18:18;6.10;99.90
12436;DHT22;6282;51.440;6.938;2023-04-15T02:20:45;6.10;99.90
12436;DHT22;6282;51.440;6.938;2023-04-15T02:23:13;6.00;99.90
12436;DHT22;6282;51.440;6.938;2023-04-15T02:25:40;5.90;99.90
12436;DHT22;6282;51.440;6.938;2023-04-15T02:28:07;6.20;99.90
12436;DHT22;6282;51.440;6.938;2023-04-15T02:30:33;5.90;99.90
12436;DHT22;6282;51.440;6.938;2023-04-15T02:33:00;5.90;99.90
12436;DHT22;6282;51.440;6.938;2023-04-15T02:35:29;5.90;99.90
12436;DHT22;6282;51.440;6.938;2023-04-15T02:37:56;6.10;99.90
12436;DHT22;6282;51.440;6.938;2023-04-15T02:40:22;6.10;99.90
12436;DHT22;6282;51.440;6.938;2023-04-15T02:42:49;5.90;99.90
12436;DHT22;6282;51.440;6.938;2023-04-15T02:45:17;5.80;99.90
12436;DHT22;6282;51.440;6.938;2023-04-15T02:47:48;6.20;99.90
12436;DHT22;6282;51.440;6.938;2023-04-15T02:50:15;6.10;99.90
12436;DHT22;6282;51.440;6.938;2023-04-15T02:52:43;5.90;99.90
12436;DHT22;6282;51.440;6.938;2023-04-15T02:55:10;6.10;99.90
12436;DHT22;6282;51.440;6.938;2023-04-15T02:57:37;6.10;99.90
12436;DHT22;6282;51.440;6.938;2023-04-15T03:00:06;6.00;99.90
12436;DHT22;6282;51.440;6.938;2023-04-15T03:02:35;5.90;99.90
12436;DHT22;6282;51.440;6.938;2023-04-15T03:05:02;6.00;99.90
12436;DHT22;6282;51.440;6.938;2023-04-15T03:07:30;6.00;99.90
12436;DHT22;6282;51.440;6.938;2023-04-15T03:09:58;6.00;99.90
12436;DHT22;6282;51.440;6.938;2023-04-15T03:12:25;5.90;99.90
12436;DHT22;6282;51.440;6.938;2023-04-15T03:14:53;5.90;99.90
12436;DHT22;6282;51.440;6.938;2023-04-15T03:17:19;6.20;99.90
12436;DHT22;6282;51.440;6.938;2023-04-15T03:19:46;6.20;99.90
12436;DHT22;6282;51.440;6.938;2023-04-15T03:22:13;6.20;99.90
12436;DHT22;6282;51.440;6.938;2023-04-15T03:24:40;6.10;99.90
12436;DHT22;6282;51.440;6.938;2023-04-15T03:27:08;6.20;99.90
12436;DHT22;6282;51.440;6.938;2023-04-15T03:29:35;6.00;99.90
12436;DHT22;6282;51.440;6.938;2023-04-15T03:32:02;6.10;99.90
12436;DHT22;6282;51.440;6.938;2023-04-15T03:34:29;6.00;99.90
12436;DHT22;6282;51.440;6.938;2023-04-15T03:36:56;5.90;99.90
12436;DHT22;6282;51.440;6.938;2023-04-15T03:39:22;5.90;99.90
12436;DHT22;6282;51.440;6.938;2023-04-15T03:41:49;5.70;99.90
12436;DHT22;6282;51.440;6.938;2023-04-15T03:44:17;5.60;99.90
12436;DHT22;6282;51.440;6.938;2023-04-15T03:46:44;5.80;99.90
12436;DHT22;6282;51.440;6.938;2023-04-15T03:49:12;5.80;99.90
12436;DHT22;6282;51.440;6.938;2023-04-15T03:51:39;5.70;99.90
12436;DHT22;6282;51.440;6.938;2023-04-15T03:54:06;5.60;99.90
12436;DHT22;6282;51.440;6.938;2023-04-15T03:56:33;5.80;99.90
12436;DHT22;6282;51.440;6.938;2023-04-15T03:59:00;5.80;99.90
12436;DHT22;6282;51.440;6.938;2023-04-15T04:01:28;5.70;99.90
12436;DHT22;6282;51.440;6.938;2023-04-15T04:03:55;5.80;99.90
12436;DHT22;6282;51.440;6.938;2023-04-15T04:06:22;5.80;99.90
12436;DHT22;6282;51.440;6.938;2023-04-15T04:08:49;5.70;99.90
12436;DHT22;6282;51.440;6.938;2023-04-15T04:11:16;5.70;99.90
12436;DHT22;6282;51.440;6.938;2023-04-15T04:13:42;5.90;99.90
12436;DHT22;6282;51.440;6.938;2023-04-15T04:16:09;5.90;99.90
12436;DHT22;6282;51.440;6.938;2023-04-15T04:18:38;5.80;99.90
12436;DHT22;6282;51.440;6.938;2023-04-15T04:21:05;6.00;99.90
12436;DHT22;6282;51.440;6.938;2023-04-15T04:23:32;5.90;99.90
12436;DHT22;6282;51.440;6.938;2023-04-15T04:25:59;5.70;99.90
12436;DHT22;6282;51.440;6.938;2023-04-15T04:28:25;5.50;99.90
12436;DHT22;6282;51.440;6.938;2023-04-15T04:30:52;5.60;99.90
12436;DHT22;6282;51.440;6.938;2023-04-15T04:33:19;5.70;99.90
12436;DHT22;6282;51.440;6.938;2023-04-15T04:35:47;5.80;99.90
12436;DHT22;6282;51.440;6.938;2023-04-15T04:38:14;5.90;99.90
12436;DHT22;6282;51.440;6.938;2023-04-15T04:40:41;5.90;99.90
12436;DHT22;6282;51.440;6.938;2023-04-15T04:43:08;5.90;99.90
12436;DHT22;6282;51.440;6.938;2023-04-15T04:45:35;5.90;99.90
12436;DHT22;6282;51.440;6.938;2023-04-15T04:48:02;6.10;99.90
12436;DHT22;6282;51.440;6.938;2023-04-15T04:50:31;5.80;99.90
12436;DHT22;6282;51.440;6.938;2023-04-15T04:52:59;5.60;99.90
12436;DHT22;6282;51.440;6.938;2023-04-15T04:55:26;5.70;99.90
12436;DHT22;6282;51.440;6.938;2023-04-15T04:57:53;5.60;99.90
12436;DHT22;6282;51.440;6.938;2023-04-15T05:00:20;5.60;99.90
12436;DHT22;6282;51.440;6.938;2023-04-15T05:02:47;5.70;99.90
12436;DHT22;6282;51.440;6.938;2023-04-15T05:05:14;5.80;99.90
12436;DHT22;6282;51.440;6.938;2023-04-15T05:07:41;5.70;99.90
12436;DHT22;6282;51.440;6.938;2023-04-15T05:10:09;5.80;99.90
12436;DHT22;6282;51.440;6.938;2023-04-15T05:12:36;5.90;99.90
12436;DHT22;6282;51.440;6.938;2023-04-15T05:15:04;5.90;99.90
12436;DHT22;6282;51.440;6.938;2023-04-15T05:17:31;5.80;99.90
12436;DHT22;6282;51.440;6.938;2023-04-15T05:19:59;5.80;99.90
12436;DHT22;6282;51.440;6.938;2023-04-15T05:22:27;6.00;99.90
12436;DHT22;6282;51.440;6.938;2023-04-15T05:24:53;5.80;99.90
12436;DHT22;6282;51.440;6.938;2023-04-15T05:27:22;5.70;99.90
12436;DHT22;6282;51.440;6.938;2023-04-15T05:29:49;5.80;99.90
12436;DHT22;6282;51.440;6.938;2023-04-15T05:32:16;5.90;99.90
12436;DHT22;6282;51.440;6.938;2023-04-15T05:34:43;6.00;99.90
12436;DHT22;6282;51.440;6.938;2023-04-15T05:37:09;6.10;99.90
12436;DHT22;6282;51.440;6.938;2023-04-15T05:39:36;6.20;99.90
12436;DHT22;6282;51.440;6.938;2023-04-15T05:42:03;6.10;99.90
12436;DHT22;6282;51.440;6.938;2023-04-15T05:44:32;6.10;99.90
12436;DHT22;6282;51.440;6.938;2023-04-15T05:46:58;6.30;99.90
12436;DHT22;6282;51.440;6.938;2023-04-15T05:49:25;6.30;99.90
12436;DHT22;6282;51.440;6.938;2023-04-15T05:51:53;6.40;99.90
12436;DHT22;6282;51.440;6.938;2023-04-15T05:54:19;6.60;99.90
12436;DHT22;6282;51.440;6.938;2023-04-15T05:56:47;6.60;99.90
12436;DHT22;6282;51.440;6.938;2023-04-15T05:59:13;6.70;99.90
12436;DHT22;6282;51.440;6.938;2023-04-15T06:01:42;6.80;99.90
12436;DHT22;6282;51.440;6.938;2023-04-15T06:04:09;6.80;99.90
12436;DHT22;6282;51.440;6.938;2023-04-15T06:06:37;6.80;99.90
12436;DHT22;6282;51.440;6.938;2023-04-15T06:09:03;7.00;99.90
12436;DHT22;6282;51.440;6.938;2023-04-15T06:11:30;7.30;99.90
12436;DHT22;6282;51.440;6.938;2023-04-15T06:13:57;7.30;99.90
12436;DHT22;6282;51.440;6.938;2023-04-15T06:16:24;7.20;99.90
12436;DHT22;6282;51.440;6.938;2023-04-15T06:18:53;7.40;99.90
12436;DHT22;6282;51.440;6.938;2023-04-15T06:21:20;7.70;99.90
12436;DHT22;6282;51.440;6.938;2023-04-15T06:23:46;7.70;99.90
12436;DHT22;6282;51.440;6.938;2023-04-15T06:26:13;7.80;99.90
12436;DHT22;6282;51.440;6.938;2023-04-15T06:28:40;7.90;99.90
12436;DHT22;6282;51.440;6.938;2023-04-15T06:31:07;8.30;99.90
12436;DHT22;6282;51.440;6.938;2023-04-15T06:33:34;8.40;99.90
12436;DHT22;6282;51.440;6.938;2023-04-15T06:36:02;8.50;99.90
12436;DHT22;6282;51.440;6.938;2023-04-15T06:38:29;8.50;99.90
12436;DHT22;6282;51.440;6.938;2023-04-15T06:40:56;8.60;99.90
12436;DHT22;6282;51.440;6.938;2023-04-15T06:43:23;8.90;99.90
12436;DHT22;6282;51.440;6.938;2023-04-15T06:45:50;8.80;99.90
12436;DHT22;6282;51.440;6.938;2023-04-15T06:48:17;8.70;99.90
12436;DHT22;6282;51.440;6.938;2023-04-15T06:50:44;8.80;99.90
12436;DHT22;6282;51.440;6.938;2023-04-15T06:53:12;8.90;99.90
12436;DHT22;6282;51.440;6.938;2023-04-15T06:55:39;9.10;99.90
12436;DHT22;6282;51.440;6.938;2023-04-15T06:58:06;9.30;99.90
12436;DHT22;6282;51.440;6.938;2023-04-15T07:00:33;9.20;99.90
12436;DHT22;6282;51.440;6.938;2023-04-15T07:03:00;10.00;99.90
12436;DHT22;6282;51.440;6.938;2023-04-15T07:05:28;10.50;99.90
12436;DHT22;6282;51.440;6.938;2023-04-15T07:07:54;11.30;99.90
12436;DHT22;6282;51.440;6.938;2023-04-15T07:10:23;11.10;99.90
12436;DHT22;6282;51.440;6.938;2023-04-15T07:12:49;10.40;99.90
12436;DHT22;6282;51.440;6.938;2023-04-15T07:15:17;10.10;99.90
12436;DHT22;6282;51.440;6.938;2023-04-15T07:17:44;10.60;99.90
12436;DHT22;6282;51.440;6.938;2023-04-15T07:20:11;10.90;99.90
12436;DHT22;6282;51.440;6.938;2023-04-15T07:22:38;11.00;99.90
12436;DHT22;6282;51.440;6.938;2023-04-15T07:25:06;11.30;99.90
12436;DHT22;6282;51.440;6.938;2023-04-15T07:27:35;11.40;99.90
12436;DHT22;6282;51.440;6.938;2023-04-15T07:30:02;11.40;99.90
12436;DHT22;6282;51.440;6.938;2023-04-15T07:32:28;10.90;99.90
12436;DHT22;6282;51.440;6.938;2023-04-15T07:34:55;10.80;99.90
12436;DHT22;6282;51.440;6.938;2023-04-15T07:37:22;10.40;99.90
12436;DHT22;6282;51.440;6.938;2023-04-15T07:39:49;10.20;99.90
12436;DHT22;6282;51.440;6.938;2023-04-15T07:42:17;10.30;99.90
12436;DHT22;6282;51.440;6.938;2023-04-15T07:44:45;10.40;99.90
12436;DHT22;6282;51.440;6.938;2023-04-15T07:47:12;10.40;99.90
12436;DHT22;6282;51.440;6.938;2023-04-15T07:49:40;10.40;99.90
12436;DHT22;6282;51.440;6.938;2023-04-15T07:52:08;10.70;99.90
12436;DHT22;6282;51.440;6.938;2023-04-15T07:54:34;10.80;99.90
12436;DHT22;6282;51.440;6.938;2023-04-15T07:57:01;10.60;99.90
12436;DHT22;6282;51.440;6.938;2023-04-15T07:59:28;10.80;99.90
12436;DHT22;6282;51.440;6.938;2023-04-15T08:01:59;10.90;99.90
12436;DHT22;6282;51.440;6.938;2023-04-15T08:04:26;11.10;99.90
12436;DHT22;6282;51.440;6.938;2023-04-15T08:06:53;11.60;99.90
12436;DHT22;6282;51.440;6.938;2023-04-15T08:09:20;11.20;99.90
12436;DHT22;6282;51.440;6.938;2023-04-15T08:11:48;11.20;99.90
12436;DHT22;6282;51.440;6.938;2023-04-15T08:14:15;11.30;99.90
12436;DHT22;6282;51.440;6.938;2023-04-15T08:16:42;11.70;99.90
12436;DHT22;6282;51.440;6.938;2023-04-15T08:19:10;11.70;99.90
12436;DHT22;6282;51.440;6.938;2023-04-15T08:21:37;11.90;99.90
12436;DHT22;6282;51.440;6.938;2023-04-15T08:24:05;11.80;99.90
12436;DHT22;6282;51.440;6.938;2023-04-15T08:26:32;11.90;99.90
12436;DHT22;6282;51.440;6.938;2023-04-15T08:28:59;11.80;99.90
12436;DHT22;6282;51.440;6.938;2023-04-15T08:31:27;11.70;99.90
12436;DHT22;6282;51.440;6.938;2023-04-15T08:33:55;11.50;99.90
12436;DHT22;6282;51.440;6.938;2023-04-15T08:36:24;11.60;99.90
12436;DHT22;6282;51.440;6.938;2023-04-15T08:38:51;11.90;99.90
12436;DHT22;6282;51.440;6.938;2023-04-15T08:41:21;11.90;99.90
12436;DHT22;6282;51.440;6.938;2023-04-15T08:43:52;12.40;99.90
12436;DHT22;6282;51.440;6.938;2023-04-15T08:46:20;12.80;99.90
12436;DHT22;6282;51.440;6.938;2023-04-15T08:48:48;13.30;99.90
12436;DHT22;6282;51.440;6.938;2023-04-15T08:51:16;13.00;99.90
12436;DHT22;6282;51.440;6.938;2023-04-15T08:53:45;13.40;99.90
12436;DHT22;6282;51.440;6.938;2023-04-15T08:56:13;14.20;99.90
12436;DHT22;6282;51.440;6.938;2023-04-15T08:58:41;13.90;99.90
12436;DHT22;6282;51.440;6.938;2023-04-15T09:01:10;13.30;99.90
12436;DHT22;6282;51.440;6.938;2023-04-15T09:03:37;13.60;99.90
12436;DHT22;6282;51.440;6.938;2023-04-15T09:06:04;12.50;99.90
12436;DHT22;6282;51.440;6.938;2023-04-15T09:08:31;12.50;99.90
12436;DHT22;6282;51.440;6.938;2023-04-15T09:11:01;12.70;99.90
12436;DHT22;6282;51.440;6.938;2023-04-15T09:13:29;12.10;99.90
12436;DHT22;6282;51.440;6.938;2023-04-15T09:15:55;11.80;99.90
12436;DHT22;6282;51.440;6.938;2023-04-15T09:18:30;11.70;99.90
12436;DHT22;6282;51.440;6.938;2023-04-15T09:21:04;11.90;99.90
12436;DHT22;6282;51.440;6.938;2023-04-15T09:23:31;11.80;99.90
12436;DHT22;6282;51.440;6.938;2023-04-15T09:26:00;12.00;99.90
12436;DHT22;6282;51.440;6.938;2023-04-15T09:28:28;11.80;99.90
12436;DHT22;6282;51.440;6.938;2023-04-15T09:30:56;11.90;99.90
12436;DHT22;6282;51.440;6.938;2023-04-15T09:33:23;12.30;99.90
12436;DHT22;6282;51.440;6.938;2023-04-15T09:35:59;12.10;99.90
12436;DHT22;6282;51.440;6.938;2023-04-15T09:38:26;12.20;99.90
12436;DHT22;6282;51.440;6.938;2023-04-15T09:40:53;12.30;99.90
12436;DHT22;6282;51.440;6.938;2023-04-15T09:43:22;12.20;99.90
12436;DHT22;6282;51.440;6.938;2023-04-15T09:45:52;12.00;99.90
12436;DHT22;6282;51.440;6.938;2023-04-15T09:48:20;12.50;99.90
12436;DHT22;6282;51.440;6.938;2023-04-15T09:50:48;12.20;99.90
12436;DHT22;6282;51.440;6.938;2023-04-15T09:53:16;12.20;99.90
12436;DHT22;6282;51.440;6.938;2023-04-15T09:55:48;11.90;99.90
12436;DHT22;6282;51.440;6.938;2023-04-15T09:58:19;11.90;99.90
12436;DHT22;6282;51.440;6.938;2023-04-15T10:00:48;12.10;99.90
12436;DHT22;6282;51.440;6.938;2023-04-15T10:03:18;11.70;99.90
12436;DHT22;6282;51.440;6.938;2023-04-15T10:05:47;11.70;99.90
12436;DHT22;6282;51.440;6.938;2023-04-15T10:08:16;11.80;99.90
12436;DHT22;6282;51.440;6.938;2023-04-15T10:10:44;11.50;99.90
12436;DHT22;6282;51.440;6.938;2023-04-15T10:13:12;11.60;99.90
12436;DHT22;6282;51.440;6.938;2023-04-15T10:15:43;11.50;99.90
12436;DHT22;6282;51.440;6.938;2023-04-15T10:18:15;11.80;99.90
12436;DHT22;6282;51.440;6.938;2023-04-15T10:20:42;11.40;99.90
12436;DHT22;6282;51.440;6.938;2023-04-15T10:23:10;11.10;99.90
12436;DHT22;6282;51.440;6.938;2023-04-15T10:25:38;11.40;99.90
12436;DHT22;6282;51.440;6.938;2023-04-15T10:28:06;11.30;99.90
12436;DHT22;6282;51.440;6.938;2023-04-15T10:30:33;11.40;99.90
12436;DHT22;6282;51.440;6.938;2023-04-15T10:33:00;11.20;99.90
12436;DHT22;6282;51.440;6.938;2023-04-15T10:35:30;11.10;99.90
12436;DHT22;6282;51.440;6.938;2023-04-15T10:37:58;11.00;99.90
12436;DHT22;6282;51.440;6.938;2023-04-15T10:40:27;11.00;99.90
12436;DHT22;6282;51.440;6.938;2023-04-15T10:42:56;10.90;99.90
12436;DHT22;6282;51.440;6.938;2023-04-15T10:45:25;11.30;99.90
12436;DHT22;6282;51.440;6.938;2023-04-15T10:47:54;11.40;99.90
12436;DHT22;6282;51.440;6.938;2023-04-15T10:50:21;11.50;99.90
12436;DHT22;6282;51.440;6.938;2023-04-15T10:52:52;11.70;99.90
12436;DHT22;6282;51.440;6.938;2023-04-15T10:55:20;11.70;99.90
12436;DHT22;6282;51.440;6.938;2023-04-15T10:57:51;11.80;99.90
12436;DHT22;6282;51.440;6.938;2023-04-15T11:00:23;11.60;99.90
12436;DHT22;6282;51.440;6.938;2023-04-15T11:02:54;11.30;99.90
12436;DHT22;6282;51.440;6.938;2023-04-15T11:05:22;11.50;99.90
12436;DHT22;6282;51.440;6.938;2023-04-15T11:08:11;11.70;99.90
12436;DHT22;6282;51.440;6.938;2023-04-15T11:10:53;11.50;99.90
12436;DHT22;6282;51.440;6.938;2023-04-15T11:13:24;11.50;99.90
12436;DHT22;6282;51.440;6.938;2023-04-15T11:15:56;11.50;99.90
12436;DHT22;6282;51.440;6.938;2023-04-15T11:18:25;11.50;99.90
12436;DHT22;6282;51.440;6.938;2023-04-15T11:20:54;11.50;99.90
12436;DHT22;6282;51.440;6.938;2023-04-15T11:23:36;11.20;99.90
12436;DHT22;6282;51.440;6.938;2023-04-15T11:26:04;11.20;99.90
12436;DHT22;6282;51.440;6.938;2023-04-15T11:28:34;11.00;99.90
12436;DHT22;6282;51.440;6.938;2023-04-15T11:31:06;11.00;99.90
12436;DHT22;6282;51.440;6.938;2023-04-15T11:33:35;11.00;99.90
12436;DHT22;6282;51.440;6.938;2023-04-15T11:36:02;11.00;99.90
12436;DHT22;6282;51.440;6.938;2023-04-15T11:38:30;11.00;99.90
12436;DHT22;6282;51.440;6.938;2023-04-15T11:40:57;10.90;99.90
12436;DHT22;6282;51.440;6.938;2023-04-15T11:43:24;11.00;99.90
12436;DHT22;6282;51.440;6.938;2023-04-15T11:45:52;10.90;99.90
12436;DHT22;6282;51.440;6.938;2023-04-15T11:48:21;10.80;99.90
12436;DHT22;6282;51.440;6.938;2023-04-15T11:50:53;11.00;99.90
12436;DHT22;6282;51.440;6.938;2023-04-15T11:53:20;10.80;99.90
12436;DHT22;6282;51.440;6.938;2023-04-15T11:55:50;10.60;99.90
12436;DHT22;6282;51.440;6.938;2023-04-15T11:58:18;10.70;99.90
12436;DHT22;6282;51.440;6.938;2023-04-15T12:00:47;10.70;99.90
12436;DHT22;6282;51.440;6.938;2023-04-15T12:03:23;10.80;99.90
12436;DHT22;6282;51.440;6.938;2023-04-15T12:06:04;10.90;99.90
12436;DHT22;6282;51.440;6.938;2023-04-15T12:08:50;10.70;99.90
12436;DHT22;6282;51.440;6.938;2023-04-15T12:11:18;10.70;99.90
12436;DHT22;6282;51.440;6.938;2023-04-15T12:13:46;10.70;99.90
12436;DHT22;6282;51.440;6.938;2023-04-15T12:16:16;10.70;99.90
12436;DHT22;6282;51.440;6.938;2023-04-15T12:18:44;10.50;99.90
12436;DHT22;6282;51.440;6.938;2023-04-15T12:21:12;10.40;99.90
12436;DHT22;6282;51.440;6.938;2023-04-15T12:23:39;10.50;99.90
12436;DHT22;6282;51.440;6.938;2023-04-15T12:26:13;10.50;99.90
12436;DHT22;6282;51.440;6.938;2023-04-15T12:28:41;10.50;99.90
12436;DHT22;6282;51.440;6.938;2023-04-15T12:31:09;10.50;99.90
12436;DHT22;6282;51.440;6.938;2023-04-15T12:33:36;10.60;99.90
12436;DHT22;6282;51.440;6.938;2023-04-15T12:36:04;10.50;99.90
12436;DHT22;6282;51.440;6.938;2023-04-15T12:38:30;10.60;99.90
12436;DHT22;6282;51.440;6.938;2023-04-15T12:40:58;10.50;99.90
12436;DHT22;6282;51.440;6.938;2023-04-15T12:43:24;10.60;99.90
12436;DHT22;6282;51.440;6.938;2023-04-15T12:45:53;10.40;99.90
12436;DHT22;6282;51.440;6.938;2023-04-15T12:48:20;10.60;99.90
12436;DHT22;6282;51.440;6.938;2023-04-15T12:50:46;10.40;99.90
12436;DHT22;6282;51.440;6.938;2023-04-15T12:53:13;10.50;99.90
12436;DHT22;6282;51.440;6.938;2023-04-15T12:55:40;10.50;99.90
12436;DHT22;6282;51.440;6.938;2023-04-15T12:58:07;10.60;99.90
12436;DHT22;6282;51.440;6.938;2023-04-15T13:00:35;11.00;99.90
12436;DHT22;6282;51.440;6.938;2023-04-15T13:03:04;10.80;99.90
12436;DHT22;6282;51.440;6.938;2023-04-15T13:05:31;10.80;99.90
12436;DHT22;6282;51.440;6.938;2023-04-15T13:07:58;10.80;99.90
12436;DHT22;6282;51.440;6.938;2023-04-15T13:10:26;10.60;99.90
12436;DHT22;6282;51.440;6.938;2023-04-15T13:12:53;10.70;99.90
12436;DHT22;6282;51.440;6.938;2023-04-15T13:15:21;10.70;99.90
12436;DHT22;6282;51.440;6.938;2023-04-15T13:17:48;10.80;99.90
12436;DHT22;6282;51.440;6.938;2023-04-15T13:20:16;10.70;99.90
12436;DHT22;6282;51.440;6.938;2023-04-15T13:22:43;10.80;99.90
12436;DHT22;6282;51.440;6.938;2023-04-15T13:25:10;10.90;99.90
12436;DHT22;6282;51.440;6.938;2023-04-15T13:27:37;10.90;99.90
12436;DHT22;6282;51.440;6.938;2023-04-15T13:30:05;10.80;99.90
12436;DHT22;6282;51.440;6.938;2023-04-15T13:32:32;10.70;99.90
12436;DHT22;6282;51.440;6.938;2023-04-15T13:34:58;10.50;99.90
12436;DHT22;6282;51.440;6.938;2023-04-15T13:37:27;10.60;99.90
12436;DHT22;6282;51.440;6.938;2023-04-15T13:39:54;10.90;99.90
12436;DHT22;6282;51.440;6.938;2023-04-15T13:42:22;10.70;99.90
12436;DHT22;6282;51.440;6.938;2023-04-15T13:44:49;11.00;99.90
12436;DHT22;6282;51.440;6.938;2023-04-15T13:47:16;10.90;99.90
12436;DHT22;6282;51.440;6.938;2023-04-15T13:49:43;10.80;99.90
12436;DHT22;6282;51.440;6.938;2023-04-15T13:52:10;10.90;99.90
12436;DHT22;6282;51.440;6.938;2023-04-15T13:54:38;10.70;99.90
12436;DHT22;6282;51.440;6.938;2023-04-15T13:57:06;10.70;99.90
12436;DHT22;6282;51.440;6.938;2023-04-15T13:59:33;10.80;99.90
12436;DHT22;6282;51.440;6.938;2023-04-15T14:02:00;10.80;99.90
12436;DHT22;6282;51.440;6.938;2023-04-15T14:04:26;11.00;99.90
12436;DHT22;6282;51.440;6.938;2023-04-15T14:06:53;10.90;99.90
12436;DHT22;6282;51.440;6.938;2023-04-15T14:09:20;10.90;99.90
12436;DHT22;6282;51.440;6.938;2023-04-15T14:11:49;10.80;99.90
12436;DHT22;6282;51.440;6.938;2023-04-15T14:14:16;10.60;99.90
12436;DHT22;6282;51.440;6.938;2023-04-15T14:16:43;10.40;99.90
12436;DHT22;6282;51.440;6.938;2023-04-15T14:19:10;10.20;99.90
12436;DHT22;6282;51.440;6.938;2023-04-15T14:21:37;10.30;99.90
12436;DHT22;6282;51.440;6.938;2023-04-15T14:24:04;10.20;99.90
12436;DHT22;6282;51.440;6.938;2023-04-15T14:26:31;10.30;99.90
12436;DHT22;6282;51.440;6.938;2023-04-15T14:28:59;10.30;99.90
12436;DHT22;6282;51.440;6.938;2023-04-15T14:31:26;10.30;99.90
12436;DHT22;6282;51.440;6.938;2023-04-15T14:33:53;10.30;99.90
12436;DHT22;6282;51.440;6.938;2023-04-15T14:36:20;10.40;99.90
12436;DHT22;6282;51.440;6.938;2023-04-15T14:38:47;10.30;99.90
12436;DHT22;6282;51.440;6.938;2023-04-15T14:41:14;10.30;99.90
12436;DHT22;6282;51.440;6.938;2023-04-15T14:43:41;10.20;99.90
12436;DHT22;6282;51.440;6.938;2023-04-15T14:46:09;10.20;99.90
12436;DHT22;6282;51.440;6.938;2023-04-15T14:48:36;10.20;99.90
12436;DHT22;6282;51.440;6.938;2023-04-15T14:51:03;10.20;99.90
12436;DHT22;6282;51.440;6.938;2023-04-15T14:53:30;10.10;99.90
12436;DHT22;6282;51.440;6.938;2023-04-15T14:55:57;10.10;99.90
12436;DHT22;6282;51.440;6.938;2023-04-15T14:58:24;10.00;99.90
12436;DHT22;6282;51.440;6.938;2023-04-15T15:00:51;9.80;99.90
12436;DHT22;6282;51.440;6.938;2023-04-15T15:03:19;10.10;99.90
12436;DHT22;6282;51.440;6.938;2023-04-15T15:05:46;10.10;99.90
12436;DHT22;6282;51.440;6.938;2023-04-15T15:08:13;10.30;99.90
12436;DHT22;6282;51.440;6.938;2023-04-15T15:10:40;10.10;99.90
12436;DHT22;6282;51.440;6.938;2023-04-15T15:13:08;10.10;99.90
12436;DHT22;6282;51.440;6.938;2023-04-15T15:15:36;10.10;99.90
12436;DHT22;6282;51.440;6.938;2023-04-15T15:18:03;10.10;99.90
12436;DHT22;6282;51.440;6.938;2023-04-15T15:20:32;10.00;99.90
12436;DHT22;6282;51.440;6.938;2023-04-15T15:23:00;10.00;99.90
12436;DHT22;6282;51.440;6.938;2023-04-15T15:25:27;10.00;99.90
12436;DHT22;6282;51.440;6.938;2023-04-15T15:27:54;10.00;99.90
12436;DHT22;6282;51.440;6.938;2023-04-15T15:30:21;9.80;99.90
12436;DHT22;6282;51.440;6.938;2023-04-15T15:32:48;9.90;99.90
12436;DHT22;6282;51.440;6.938;2023-04-15T15:35:14;9.70;99.90
12436;DHT22;6282;51.440;6.938;2023-04-15T15:37:44;9.80;99.90
12436;DHT22;6282;51.440;6.938;2023-04-15T15:40:11;9.70;99.90
12436;DHT22;6282;51.440;6.938;2023-04-15T15:42:38;9.70;99.90
12436;DHT22;6282;51.440;6.938;2023-04-15T15:45:06;9.70;99.90
12436;DHT22;6282;51.440;6.938;2023-04-15T15:47:33;9.70;99.90
12436;DHT22;6282;51.440;6.938;2023-04-15T15:50:00;9.80;99.90
12436;DHT22;6282;51.440;6.938;2023-04-15T15:52:27;9.70;99.90
12436;DHT22;6282;51.440;6.938;2023-04-15T15:54:55;9.80;99.90